sensor_id;sensor_type;location;lat;lon;timestamp;temperature;humidity
76787;DHT22;65739;51.482;5.702;2023-09-19T00:01:39;14.90;99.90
76787;DHT22;65739;51.482;5.702;2023-09-19T00:04:05;14.90;99.90
76787;DHT22;65739;51.482;5.702;2023-09-19T00:06:38;14.90;99.90
76787;DHT22;65739;51.482;5.702;2023-09-19T00:09:04;14.90;99.90
76787;DHT22;65739;51.482;5.702;2023-09-19T00:11:30;14.90;99.90
76787;DHT22;65739;51.482;5.702;2023-09-19T00:13:56;14.80;99.90
76787;DHT22;65739;51.482;5.702;2023-09-19T00:16:24;14.90;99.90
76787;DHT22;65739;51.482;5.702;2023-09-19T00:18:50;14.80;99.90
76787;DHT22;65739;51.482;5.702;2023-09-19T00:21:15;14.80;99.90
76787;DHT22;65739;51.482;5.702;2023-09-19T00:23:41;14.80;99.90
76787;DHT22;65739;51.482;5.702;2023-09-19T00:26:07;14.80;99.90
76787;DHT22;65739;51.482;5.702;2023-09-19T00:28:32;14.80;99.90
76787;DHT22;65739;51.482;5.702;2023-09-19T00:30:58;14.70;99.90
76787;DHT22;65739;51.482;5.702;2023-09-19T00:33:27;14.70;99.90
76787;DHT22;65739;51.482;5.702;2023-09-19T00:35:55;14.70;99.90
76787;DHT22;65739;51.482;5.702;2023-09-19T00:38:22;14.70;99.90
76787;DHT22;65739;51.482;5.702;2023-09-19T00:40:52;14.70;99.90
76787;DHT22;65739;51.482;5.702;2023-09-19T00:43:18;14.60;99.90
76787;DHT22;65739;51.482;5.702;2023-09-19T00:45:46;14.70;99.90
76787;DHT22;65739;51.482;5.702;2023-09-19T00:48:14;14.70;99.90
76787;DHT22;65739;51.482;5.702;2023-09-19T00:50:41;14.70;99.90
76787;DHT22;65739;51.482;5.702;2023-09-19T00:53:08;14.70;99.90
76787;DHT22;65739;51.482;5.702;2023-09-19T00:55:36;14.60;99.90
76787;DHT22;65739;51.482;5.702;2023-09-19T00:58:08;14.60;99.90
76787;DHT22;65739;51.482;5.702;2023-09-19T01:00:33;14.70;99.90
76787;DHT22;65739;51.482;5.702;2023-09-19T01:03:00;14.60;99.90
76787;DHT22;65739;51.482;5.702;2023-09-19T01:05:27;14.60;99.90
76787;DHT22;65739;51.482;5.702;2023-09-19T01:07:53;14.60;99.90
76787;DHT22;65739;51.482;5.702;2023-09-19T01:10:20;14.60;99.90
76787;DHT22;65739;51.482;5.702;2023-09-19T01:13:09;14.60;99.90
76787;DHT22;65739;51.482;5.702;2023-09-19T01:16:03;14.50;99.90
76787;DHT22;65739;51.482;5.702;2023-09-19T01:21:44;14.50;99.90
76787;DHT22;65739;51.482;5.702;2023-09-19T01:24:31;14.50;99.90
76787;DHT22;65739;51.482;5.702;2023-09-19T01:27:25;14.50;99.90
76787;DHT22;65739;51.482;5.702;2023-09-19T01:30:35;14.40;99.90
76787;DHT22;65739;51.482;5.702;2023-09-19T01:32:52;14.40;99.90
76787;DHT22;65739;51.482;5.702;2023-09-19T01:35:19;14.40;99.90
76787;DHT22;65739;51.482;5.702;2023-09-19T01:37:45;14.30;99.90
76787;DHT22;65739;51.482;5.702;2023-09-19T01:40:12;14.40;99.90
76787;DHT22;65739;51.482;5.702;2023-09-19T01:48:48;14.30;99.90
76787;DHT22;65739;51.482;5.702;2023-09-19T01:51:22;14.30;99.90
76787;DHT22;65739;51.482;5.702;2023-09-19T01:54:09;14.30;99.90
76787;DHT22;65739;51.482;5.702;2023-09-19T01:56:53;14.30;99.90
76787;DHT22;65739;51.482;5.702;2023-09-19T01:59:26;14.20;99.90
76787;DHT22;65739;51.482;5.702;2023-09-19T02:01:54;14.20;99.90
76787;DHT22;65739;51.482;5.702;2023-09-19T02:04:20;14.30;99.90
76787;DHT22;65739;51.482;5.702;2023-09-19T02:06:46;14.20;99.90
76787;DHT22;65739;51.482;5.702;2023-09-19T02:09:14;14.10;99.90
76787;DHT22;65739;51.482;5.702;2023-09-19T02:11:40;14.10;99.90
76787;DHT22;65739;51.482;5.702;2023-09-19T02:14:06;14.20;99.90
76787;DHT22;65739;51.482;5.702;2023-09-19T02:16:36;14.20;99.90
76787;DHT22;65739;51.482;5.702;2023-09-19T02:19:02;14.20;99.90
76787;DHT22;65739;51.482;5.702;2023-09-19T02:21:31;14.20;99.90
76787;DHT22;65739;51.482;5.702;2023-09-19T02:23:57;14.20;99.90
76787;DHT22;65739;51.482;5.702;2023-09-19T02:26:24;14.20;99.90
76787;DHT22;65739;51.482;5.702;2023-09-19T02:28:49;14.10;99.90
76787;DHT22;65739;51.482;5.702;2023-09-19T02:31:15;14.10;99.90
76787;DHT22;65739;51.482;5.702;2023-09-19T02:33:42;14.10;99.90
76787;DHT22;65739;51.482;5.702;2023-09-19T02:36:07;14.10;99.90
76787;DHT22;65739;51.482;5.702;2023-09-19T02:38:34;14.00;99.90
76787;DHT22;65739;51.482;5.702;2023-09-19T02:40:59;14.00;99.90
76787;DHT22;65739;51.482;5.702;2023-09-19T02:43:25;13.90;99.90
76787;DHT22;65739;51.482;5.702;2023-09-19T02:45:51;13.90;99.90
76787;DHT22;65739;51.482;5.702;2023-09-19T02:48:18;13.90;99.90
76787;DHT22;65739;51.482;5.702;2023-09-19T02:50:44;13.90;99.90
76787;DHT22;65739;51.482;5.702;2023-09-19T02:53:10;13.80;99.90
76787;DHT22;65739;51.482;5.702;2023-09-19T02:55:38;13.80;99.90
76787;DHT22;65739;51.482;5.702;2023-09-19T02:58:05;13.80;99.90
76787;DHT22;65739;51.482;5.702;2023-09-19T03:00:33;13.70;99.90
76787;DHT22;65739;51.482;5.702;2023-09-19T03:03:00;13.70;99.90
76787;DHT22;65739;51.482;5.702;2023-09-19T03:05:27;13.70;99.90
76787;DHT22;65739;51.482;5.702;2023-09-19T03:07:56;13.80;99.90
76787;DHT22;65739;51.482;5.702;2023-09-19T03:10:22;13.70;99.90
76787;DHT22;65739;51.482;5.702;2023-09-19T03:12:49;13.70;99.90
76787;DHT22;65739;51.482;5.702;2023-09-19T03:15:15;13.60;99.90
76787;DHT22;65739;51.482;5.702;2023-09-19T03:17:45;13.60;99.90
76787;DHT22;65739;51.482;5.702;2023-09-19T03:20:11;13.70;99.90
76787;DHT22;65739;51.482;5.702;2023-09-19T03:22:38;13.70;99.90
76787;DHT22;65739;51.482;5.702;2023-09-19T03:25:06;13.60;99.90
76787;DHT22;65739;51.482;5.702;2023-09-19T03:27:40;13.70;99.90
76787;DHT22;65739;51.482;5.702;2023-09-19T03:30:06;13.60;99.90
76787;DHT22;65739;51.482;5.702;2023-09-19T03:32:37;13.60;99.90
76787;DHT22;65739;51.482;5.702;2023-09-19T03:35:03;13.60;99.90
76787;DHT22;65739;51.482;5.702;2023-09-19T03:37:31;13.60;99.90
76787;DHT22;65739;51.482;5.702;2023-09-19T03:39:57;13.60;99.90
76787;DHT22;65739;51.482;5.702;2023-09-19T03:42:22;13.60;99.90
76787;DHT22;65739;51.482;5.702;2023-09-19T03:44:52;13.60;99.90
76787;DHT22;65739;51.482;5.702;2023-09-19T03:47:18;13.50;99.90
76787;DHT22;65739;51.482;5.702;2023-09-19T03:49:44;13.50;99.90
76787;DHT22;65739;51.482;5.702;2023-09-19T03:52:10;13.50;99.90
76787;DHT22;65739;51.482;5.702;2023-09-19T03:54:35;13.50;99.90
76787;DHT22;65739;51.482;5.702;2023-09-19T03:57:01;13.50;99.90
76787;DHT22;65739;51.482;5.702;2023-09-19T03:59:26;13.50;99.90
76787;DHT22;65739;51.482;5.702;2023-09-19T04:01:53;13.40;99.90
76787;DHT22;65739;51.482;5.702;2023-09-19T04:04:22;13.50;99.90
76787;DHT22;65739;51.482;5.702;2023-09-19T04:06:50;13.50;99.90
76787;DHT22;65739;51.482;5.702;2023-09-19T04:09:16;13.40;99.90
76787;DHT22;65739;51.482;5.702;2023-09-19T04:11:41;13.40;99.90
76787;DHT22;65739;51.482;5.702;2023-09-19T04:14:07;13.40;99.90
76787;DHT22;65739;51.482;5.702;2023-09-19T04:16:32;13.40;99.90
76787;DHT22;65739;51.482;5.702;2023-09-19T04:18:58;13.40;99.90
76787;DHT22;65739;51.482;5.702;2023-09-19T04:21:23;13.30;99.90
76787;DHT22;65739;51.482;5.702;2023-09-19T04:23:49;13.30;99.90
76787;DHT22;65739;51.482;5.702;2023-09-19T04:26:14;13.30;99.90
76787;DHT22;65739;51.482;5.702;2023-09-19T04:28:42;13.40;99.90
76787;DHT22;65739;51.482;5.702;2023-09-19T04:31:09;13.40;99.90
76787;DHT22;65739;51.482;5.702;2023-09-19T04:33:37;13.30;99.90
76787;DHT22;65739;51.482;5.702;2023-09-19T04:36:03;13.40;99.90
76787;DHT22;65739;51.482;5.702;2023-09-19T04:38:33;13.30;99.90
76787;DHT22;65739;51.482;5.702;2023-09-19T04:40:58;13.30;99.90
76787;DHT22;65739;51.482;5.702;2023-09-19T04:43:24;13.40;99.90
76787;DHT22;65739;51.482;5.702;2023-09-19T04:45:50;13.40;99.90
76787;DHT22;65739;51.482;5.702;2023-09-19T04:48:16;13.30;99.90
76787;DHT22;65739;51.482;5.702;2023-09-19T04:50:42;13.40;99.90
76787;DHT22;65739;51.482;5.702;2023-09-19T04:53:08;13.40;99.90
76787;DHT22;65739;51.482;5.702;2023-09-19T04:55:33;13.40;99.90
76787;DHT22;65739;51.482;5.702;2023-09-19T04:57:59;13.40;99.90
76787;DHT22;65739;51.482;5.702;2023-09-19T05:00:24;13.50;99.90
76787;DHT22;65739;51.482;5.702;2023-09-19T05:02:51;13.60;99.90
76787;DHT22;65739;51.482;5.702;2023-09-19T05:05:17;13.60;99.90
76787;DHT22;65739;51.482;5.702;2023-09-19T05:07:44;13.70;99.90
76787;DHT22;65739;51.482;5.702;2023-09-19T05:10:10;13.80;99.90
76787;DHT22;65739;51.482;5.702;2023-09-19T05:12:37;13.80;99.90
76787;DHT22;65739;51.482;5.702;2023-09-19T05:15:03;13.90;99.90
76787;DHT22;65739;51.482;5.702;2023-09-19T05:17:30;13.90;99.90
76787;DHT22;65739;51.482;5.702;2023-09-19T05:19:56;13.90;99.90
76787;DHT22;65739;51.482;5.702;2023-09-19T05:22:23;14.00;99.90
76787;DHT22;65739;51.482;5.702;2023-09-19T05:24:50;14.00;99.90
76787;DHT22;65739;51.482;5.702;2023-09-19T05:27:16;14.00;99.90
76787;DHT22;65739;51.482;5.702;2023-09-19T05:29:43;14.00;99.90
76787;DHT22;65739;51.482;5.702;2023-09-19T05:32:10;13.90;99.90
76787;DHT22;65739;51.482;5.702;2023-09-19T05:34:36;14.00;99.90
76787;DHT22;65739;51.482;5.702;2023-09-19T05:37:01;14.10;99.90
76787;DHT22;65739;51.482;5.702;2023-09-19T05:39:27;14.10;99.90
76787;DHT22;65739;51.482;5.702;2023-09-19T05:41:53;14.10;99.90
76787;DHT22;65739;51.482;5.702;2023-09-19T05:44:18;14.00;99.90
76787;DHT22;65739;51.482;5.702;2023-09-19T05:46:44;14.10;99.90
76787;DHT22;65739;51.482;5.702;2023-09-19T05:49:11;14.10;99.90
76787;DHT22;65739;51.482;5.702;2023-09-19T05:51:36;14.10;99.90
76787;DHT22;65739;51.482;5.702;2023-09-19T05:54:02;14.10;99.90
76787;DHT22;65739;51.482;5.702;2023-09-19T05:56:30;14.10;99.90
76787;DHT22;65739;51.482;5.702;2023-09-19T05:58:55;14.10;99.90
76787;DHT22;65739;51.482;5.702;2023-09-19T06:01:21;14.10;99.90
76787;DHT22;65739;51.482;5.702;2023-09-19T06:03:47;14.10;99.90
76787;DHT22;65739;51.482;5.702;2023-09-19T06:06:13;14.10;99.90
76787;DHT22;65739;51.482;5.702;2023-09-19T06:08:39;14.10;99.90
76787;DHT22;65739;51.482;5.702;2023-09-19T06:11:05;14.10;99.90
76787;DHT22;65739;51.482;5.702;2023-09-19T06:13:34;14.20;99.90
76787;DHT22;65739;51.482;5.702;2023-09-19T06:16:00;14.10;99.90
76787;DHT22;65739;51.482;5.702;2023-09-19T06:18:30;14.20;99.90
76787;DHT22;65739;51.482;5.702;2023-09-19T06:20:59;14.30;99.90
76787;DHT22;65739;51.482;5.702;2023-09-19T06:23:25;14.30;99.90
76787;DHT22;65739;51.482;5.702;2023-09-19T06:25:52;14.30;99.90
76787;DHT22;65739;51.482;5.702;2023-09-19T06:28:18;14.30;99.90
76787;DHT22;65739;51.482;5.702;2023-09-19T06:30:49;14.40;99.90
76787;DHT22;65739;51.482;5.702;2023-09-19T06:33:14;14.40;99.90
76787;DHT22;65739;51.482;5.702;2023-09-19T06:35:40;14.50;99.90
76787;DHT22;65739;51.482;5.702;2023-09-19T06:38:07;14.50;99.90
76787;DHT22;65739;51.482;5.702;2023-09-19T06:40:34;14.50;99.90
76787;DHT22;65739;51.482;5.702;2023-09-19T06:42:59;14.50;99.90
76787;DHT22;65739;51.482;5.702;2023-09-19T06:45:27;14.50;99.90
76787;DHT22;65739;51.482;5.702;2023-09-19T06:47:53;14.60;99.90
76787;DHT22;65739;51.482;5.702;2023-09-19T06:50:21;14.60;99.90
76787;DHT22;65739;51.482;5.702;2023-09-19T06:52:51;14.60;99.90
76787;DHT22;65739;51.482;5.702;2023-09-19T06:55:20;14.60;99.90
76787;DHT22;65739;51.482;5.702;2023-09-19T06:57:48;14.60;99.90
76787;DHT22;65739;51.482;5.702;2023-09-19T07:00:15;14.70;99.90
76787;DHT22;65739;51.482;5.702;2023-09-19T07:03:04;14.70;99.90
76787;DHT22;65739;51.482;5.702;2023-09-19T07:05:34;14.80;99.90
76787;DHT22;65739;51.482;5.702;2023-09-19T07:08:03;14.80;99.90
76787;DHT22;65739;51.482;5.702;2023-09-19T07:10:30;14.70;99.90
76787;DHT22;65739;51.482;5.702;2023-09-19T07:12:57;14.80;99.90
76787;DHT22;65739;51.482;5.702;2023-09-19T07:15:23;14.80;99.90
76787;DHT22;65739;51.482;5.702;2023-09-19T07:17:51;14.90;99.90
76787;DHT22;65739;51.482;5.702;2023-09-19T07:20:17;15.00;99.90
76787;DHT22;65739;51.482;5.702;2023-09-19T07:22:43;15.00;99.90
76787;DHT22;65739;51.482;5.702;2023-09-19T07:25:08;15.10;99.90
76787;DHT22;65739;51.482;5.702;2023-09-19T07:27:34;15.10;99.90
76787;DHT22;65739;51.482;5.702;2023-09-19T07:29:59;15.20;99.90
76787;DHT22;65739;51.482;5.702;2023-09-19T07:32:25;15.20;99.90
76787;DHT22;65739;51.482;5.702;2023-09-19T07:34:50;15.30;99.90
76787;DHT22;65739;51.482;5.702;2023-09-19T07:37:16;15.30;99.90
76787;DHT22;65739;51.482;5.702;2023-09-19T07:39:42;15.50;99.90
76787;DHT22;65739;51.482;5.702;2023-09-19T07:42:10;15.40;99.90
76787;DHT22;65739;51.482;5.702;2023-09-19T07:44:36;15.50;99.90
76787;DHT22;65739;51.482;5.702;2023-09-19T07:47:02;15.50;99.90
76787;DHT22;65739;51.482;5.702;2023-09-19T07:49:28;15.50;99.90
76787;DHT22;65739;51.482;5.702;2023-09-19T07:51:54;15.60;99.90
76787;DHT22;65739;51.482;5.702;2023-09-19T07:54:20;15.60;99.90
76787;DHT22;65739;51.482;5.702;2023-09-19T07:56:46;15.60;99.90
76787;DHT22;65739;51.482;5.702;2023-09-19T07:59:12;15.70;99.90
76787;DHT22;65739;51.482;5.702;2023-09-19T08:01:39;15.80;99.90
76787;DHT22;65739;51.482;5.702;2023-09-19T08:04:07;15.80;99.90
76787;DHT22;65739;51.482;5.702;2023-09-19T08:06:32;15.90;99.90
76787;DHT22;65739;51.482;5.702;2023-09-19T08:08:58;15.90;99.90
76787;DHT22;65739;51.482;5.702;2023-09-19T08:11:26;16.10;99.90
76787;DHT22;65739;51.482;5.702;2023-09-19T08:13:56;16.20;99.90
76787;DHT22;65739;51.482;5.702;2023-09-19T08:16:22;16.20;99.90
76787;DHT22;65739;51.482;5.702;2023-09-19T08:18:49;16.20;99.90
76787;DHT22;65739;51.482;5.702;2023-09-19T08:21:18;16.30;99.90
76787;DHT22;65739;51.482;5.702;2023-09-19T08:23:44;16.30;99.90
76787;DHT22;65739;51.482;5.702;2023-09-19T08:26:10;16.40;99.90
76787;DHT22;65739;51.482;5.702;2023-09-19T08:28:36;16.50;99.90
76787;DHT22;65739;51.482;5.702;2023-09-19T08:31:05;16.50;99.90
76787;DHT22;65739;51.482;5.702;2023-09-19T08:33:32;16.50;99.90
76787;DHT22;65739;51.482;5.702;2023-09-19T08:35:59;16.50;99.90
76787;DHT22;65739;51.482;5.702;2023-09-19T08:38:24;16.70;99.90
76787;DHT22;65739;51.482;5.702;2023-09-19T08:40:58;16.70;99.90
76787;DHT22;65739;51.482;5.702;2023-09-19T08:43:25;16.70;99.90
76787;DHT22;65739;51.482;5.702;2023-09-19T08:48:31;16.70;99.90
76787;DHT22;65739;51.482;5.702;2023-09-19T08:51:03;16.80;99.90
76787;DHT22;65739;51.482;5.702;2023-09-19T08:53:41;17.10;99.90
76787;DHT22;65739;51.482;5.702;2023-09-19T08:56:10;17.30;99.90
76787;DHT22;65739;51.482;5.702;2023-09-19T08:58:50;17.00;99.90
76787;DHT22;65739;51.482;5.702;2023-09-19T09:01:18;17.10;99.90
76787;DHT22;65739;51.482;5.702;2023-09-19T09:03:51;17.00;99.90
76787;DHT22;65739;51.482;5.702;2023-09-19T09:06:18;17.10;99.90
76787;DHT22;65739;51.482;5.702;2023-09-19T09:08:45;17.00;99.90
76787;DHT22;65739;51.482;5.702;2023-09-19T09:11:11;16.90;99.90
76787;DHT22;65739;51.482;5.702;2023-09-19T09:13:38;17.00;99.90
76787;DHT22;65739;51.482;5.702;2023-09-19T09:16:04;17.20;99.90
76787;DHT22;65739;51.482;5.702;2023-09-19T09:18:30;17.30;99.90
76787;DHT22;65739;51.482;5.702;2023-09-19T09:20:55;17.50;99.90
76787;DHT22;65739;51.482;5.702;2023-09-19T09:23:21;17.50;99.90
76787;DHT22;65739;51.482;5.702;2023-09-19T09:25:51;17.50;99.90
76787;DHT22;65739;51.482;5.702;2023-09-19T09:28:22;17.60;99.90
76787;DHT22;65739;51.482;5.702;2023-09-19T09:30:48;17.50;99.90
76787;DHT22;65739;51.482;5.702;2023-09-19T09:33:14;17.50;99.90
76787;DHT22;65739;51.482;5.702;2023-09-19T09:35:48;17.60;99.90
76787;DHT22;65739;51.482;5.702;2023-09-19T09:38:18;17.60;99.90
76787;DHT22;65739;51.482;5.702;2023-09-19T09:40:49;17.90;99.90
76787;DHT22;65739;51.482;5.702;2023-09-19T09:43:36;18.00;99.90
76787;DHT22;65739;51.482;5.702;2023-09-19T09:46:21;18.00;99.90
76787;DHT22;65739;51.482;5.702;2023-09-19T09:49:03;18.20;99.90
76787;DHT22;65739;51.482;5.702;2023-09-19T09:51:50;18.30;99.90
76787;DHT22;65739;51.482;5.702;2023-09-19T09:54:35;18.60;99.90
76787;DHT22;65739;51.482;5.702;2023-09-19T09:57:10;18.40;99.90
76787;DHT22;65739;51.482;5.702;2023-09-19T10:02:29;18.60;99.90
76787;DHT22;65739;51.482;5.702;2023-09-19T10:04:58;18.60;99.90
76787;DHT22;65739;51.482;5.702;2023-09-19T10:07:39;18.80;99.90
76787;DHT22;65739;51.482;5.702;2023-09-19T10:10:07;18.80;99.90
76787;DHT22;65739;51.482;5.702;2023-09-19T10:12:47;18.90;99.90
76787;DHT22;65739;51.482;5.702;2023-09-19T10:15:17;19.10;99.90
76787;DHT22;65739;51.482;5.702;2023-09-19T10:17:47;19.00;99.90
76787;DHT22;65739;51.482;5.702;2023-09-19T10:20:14;19.20;99.90
76787;DHT22;65739;51.482;5.702;2023-09-19T10:22:59;19.30;99.90
76787;DHT22;65739;51.482;5.702;2023-09-19T10:25:29;19.40;99.90
76787;DHT22;65739;51.482;5.702;2023-09-19T10:27:57;19.50;99.90
76787;DHT22;65739;51.482;5.702;2023-09-19T10:30:25;19.60;99.90
76787;DHT22;65739;51.482;5.702;2023-09-19T10:33:01;19.60;99.90
76787;DHT22;65739;51.482;5.702;2023-09-19T10:35:27;19.50;99.90
76787;DHT22;65739;51.482;5.702;2023-09-19T10:37:59;19.90;99.90
76787;DHT22;65739;51.482;5.702;2023-09-19T10:40:27;20.30;99.90
76787;DHT22;65739;51.482;5.702;2023-09-19T10:43:03;20.30;99.90
76787;DHT22;65739;51.482;5.702;2023-09-19T10:45:35;20.20;99.90
76787;DHT22;65739;51.482;5.702;2023-09-19T10:48:04;20.10;99.90
76787;DHT22;65739;51.482;5.702;2023-09-19T10:50:35;20.20;99.90
76787;DHT22;65739;51.482;5.702;2023-09-19T10:53:04;20.40;99.90
76787;DHT22;65739;51.482;5.702;2023-09-19T10:55:33;20.40;99.90
76787;DHT22;65739;51.482;5.702;2023-09-19T10:58:01;20.50;99.90
76787;DHT22;65739;51.482;5.702;2023-09-19T11:01:06;20.60;99.90
76787;DHT22;65739;51.482;5.702;2023-09-19T11:03:38;20.30;99.90
76787;DHT22;65739;51.482;5.702;2023-09-19T11:06:18;20.50;99.90
76787;DHT22;65739;51.482;5.702;2023-09-19T11:08:55;20.40;99.90
76787;DHT22;65739;51.482;5.702;2023-09-19T11:11:41;20.30;99.90
76787;DHT22;65739;51.482;5.702;2023-09-19T11:30:27;21.20;99.90
76787;DHT22;65739;51.482;5.702;2023-09-19T11:33:27;20.90;99.90
76787;DHT22;65739;51.482;5.702;2023-09-19T11:36:06;21.10;99.90
76787;DHT22;65739;51.482;5.702;2023-09-19T11:43:46;21.70;99.90
76787;DHT22;65739;51.482;5.702;2023-09-19T11:46:11;21.70;99.90
76787;DHT22;65739;51.482;5.702;2023-09-19T11:48:38;21.00;99.90
76787;DHT22;65739;51.482;5.702;2023-09-19T11:51:13;21.00;99.90
76787;DHT22;65739;51.482;5.702;2023-09-19T11:53:48;21.00;99.90
76787;DHT22;65739;51.482;5.702;2023-09-19T11:56:18;21.10;99.90
76787;DHT22;65739;51.482;5.702;2023-09-19T11:58:45;21.40;99.90
76787;DHT22;65739;51.482;5.702;2023-09-19T12:01:13;21.90;99.90
76787;DHT22;65739;51.482;5.702;2023-09-19T12:03:43;21.80;99.90
76787;DHT22;65739;51.482;5.702;2023-09-19T12:06:14;21.80;99.90
76787;DHT22;65739;51.482;5.702;2023-09-19T12:08:41;22.00;99.90
76787;DHT22;65739;51.482;5.702;2023-09-19T12:11:15;21.70;99.90
76787;DHT22;65739;51.482;5.702;2023-09-19T12:13:45;21.60;99.90
76787;DHT22;65739;51.482;5.702;2023-09-19T12:16:15;21.20;99.90
76787;DHT22;65739;51.482;5.702;2023-09-19T12:18:42;20.80;99.90
76787;DHT22;65739;51.482;5.702;2023-09-19T12:21:28;20.80;99.90
76787;DHT22;65739;51.482;5.702;2023-09-19T12:24:07;20.80;99.90
76787;DHT22;65739;51.482;5.702;2023-09-19T12:26:46;20.70;99.90
76787;DHT22;65739;51.482;5.702;2023-09-19T12:29:19;20.90;99.90
76787;DHT22;65739;51.482;5.702;2023-09-19T12:34:25;21.10;99.90
76787;DHT22;65739;51.482;5.702;2023-09-19T12:37:12;21.40;99.90
76787;DHT22;65739;51.482;5.702;2023-09-19T12:39:50;21.30;99.90
76787;DHT22;65739;51.482;5.702;2023-09-19T12:42:19;21.40;99.90
76787;DHT22;65739;51.482;5.702;2023-09-19T12:44:47;21.70;99.90
76787;DHT22;65739;51.482;5.702;2023-09-19T12:47:18;21.80;99.90
76787;DHT22;65739;51.482;5.702;2023-09-19T12:50:11;21.30;99.90
76787;DHT22;65739;51.482;5.702;2023-09-19T12:52:46;21.20;99.90
76787;DHT22;65739;51.482;5.702;2023-09-19T12:55:27;20.90;99.90
76787;DHT22;65739;51.482;5.702;2023-09-19T12:58:12;20.80;99.90
76787;DHT22;65739;51.482;5.702;2023-09-19T13:00:39;20.80;99.90
76787;DHT22;65739;51.482;5.702;2023-09-19T13:05:51;20.70;99.90
76787;DHT22;65739;51.482;5.702;2023-09-19T13:08:25;20.80;99.90
76787;DHT22;65739;51.482;5.702;2023-09-19T13:11:19;20.90;99.90
76787;DHT22;65739;51.482;5.702;2023-09-19T13:13:49;21.10;99.90
76787;DHT22;65739;51.482;5.702;2023-09-19T13:16:19;21.20;99.90
76787;DHT22;65739;51.482;5.702;2023-09-19T13:18:54;21.30;99.90
76787;DHT22;65739;51.482;5.702;2023-09-19T13:21:35;21.20;99.90
76787;DHT22;65739;51.482;5.702;2023-09-19T13:24:19;21.20;99.90
76787;DHT22;65739;51.482;5.702;2023-09-19T13:26:45;21.00;99.90
76787;DHT22;65739;51.482;5.702;2023-09-19T13:29:11;20.90;99.90
76787;DHT22;65739;51.482;5.702;2023-09-19T13:31:37;20.90;99.90
76787;DHT22;65739;51.482;5.702;2023-09-19T13:34:07;20.90;99.90
76787;DHT22;65739;51.482;5.702;2023-09-19T13:36:33;20.80;99.90
76787;DHT22;65739;51.482;5.702;2023-09-19T13:38:59;21.00;99.90
76787;DHT22;65739;51.482;5.702;2023-09-19T13:41:25;20.70;99.90
76787;DHT22;65739;51.482;5.702;2023-09-19T13:43:51;20.70;99.90
76787;DHT22;65739;51.482;5.702;2023-09-19T13:46:17;20.30;99.90
76787;DHT22;65739;51.482;5.702;2023-09-19T13:48:50;20.30;99.90
76787;DHT22;65739;51.482;5.702;2023-09-19T13:51:17;20.10;99.90
76787;DHT22;65739;51.482;5.702;2023-09-19T13:53:44;20.30;99.90
76787;DHT22;65739;51.482;5.702;2023-09-19T13:56:10;20.30;99.90
76787;DHT22;65739;51.482;5.702;2023-09-19T13:58:36;20.20;99.90
76787;DHT22;65739;51.482;5.702;2023-09-19T14:01:02;20.10;99.90
76787;DHT22;65739;51.482;5.702;2023-09-19T14:03:27;20.20;99.90
76787;DHT22;65739;51.482;5.702;2023-09-19T14:05:53;20.10;99.90
76787;DHT22;65739;51.482;5.702;2023-09-19T14:08:19;20.20;99.90
76787;DHT22;65739;51.482;5.702;2023-09-19T14:10:45;20.20;99.90
76787;DHT22;65739;51.482;5.702;2023-09-19T14:13:10;20.10;99.90
76787;DHT22;65739;51.482;5.702;2023-09-19T14:15:38;19.90;99.90
76787;DHT22;65739;51.482;5.702;2023-09-19T14:18:04;20.00;99.90
76787;DHT22;65739;51.482;5.702;2023-09-19T14:20:30;19.80;99.90
76787;DHT22;65739;51.482;5.702;2023-09-19T14:22:57;19.80;99.90
76787;DHT22;65739;51.482;5.702;2023-09-19T14:25:24;19.80;99.90
76787;DHT22;65739;51.482;5.702;2023-09-19T14:27:50;19.90;99.90
76787;DHT22;65739;51.482;5.702;2023-09-19T14:30:16;20.00;99.90
76787;DHT22;65739;51.482;5.702;2023-09-19T14:32:41;20.10;99.90
76787;DHT22;65739;51.482;5.702;2023-09-19T14:35:08;20.10;99.90
76787;DHT22;65739;51.482;5.702;2023-09-19T14:37:35;20.10;99.90
76787;DHT22;65739;51.482;5.702;2023-09-19T14:40:01;20.30;99.90
76787;DHT22;65739;51.482;5.702;2023-09-19T14:42:32;20.50;99.90
76787;DHT22;65739;51.482;5.702;2023-09-19T14:44:57;20.80;99.90
76787;DHT22;65739;51.482;5.702;2023-09-19T14:47:23;20.70;99.90
76787;DHT22;65739;51.482;5.702;2023-09-19T14:49:49;20.80;99.90
76787;DHT22;65739;51.482;5.702;2023-09-19T14:52:14;21.00;99.90
76787;DHT22;65739;51.482;5.702;2023-09-19T14:54:41;21.10;99.90
76787;DHT22;65739;51.482;5.702;2023-09-19T14:57:06;21.20;99.90
76787;DHT22;65739;51.482;5.702;2023-09-19T14:59:34;21.10;99.90
76787;DHT22;65739;51.482;5.702;2023-09-19T15:02:06;20.80;99.90
76787;DHT22;65739;51.482;5.702;2023-09-19T15:04:32;20.50;99.90
76787;DHT22;65739;51.482;5.702;2023-09-19T15:06:59;20.40;99.90
76787;DHT22;65739;51.482;5.702;2023-09-19T15:09:25;20.40;99.90
76787;DHT22;65739;51.482;5.702;2023-09-19T15:11:55;20.50;99.90
76787;DHT22;65739;51.482;5.702;2023-09-19T15:14:21;20.50;99.90
76787;DHT22;65739;51.482;5.702;2023-09-19T15:16:47;20.20;99.90
76787;DHT22;65739;51.482;5.702;2023-09-19T15:19:14;20.30;99.90
76787;DHT22;65739;51.482;5.702;2023-09-19T15:21:40;20.30;99.90
76787;DHT22;65739;51.482;5.702;2023-09-19T15:24:06;20.20;99.90
76787;DHT22;65739;51.482;5.702;2023-09-19T15:26:38;20.10;99.90
76787;DHT22;65739;51.482;5.702;2023-09-19T15:29:09;20.20;99.90
76787;DHT22;65739;51.482;5.702;2023-09-19T15:31:35;20.20;99.90
76787;DHT22;65739;51.482;5.702;2023-09-19T15:34:04;20.30;99.90
76787;DHT22;65739;51.482;5.702;2023-09-19T15:36:32;20.30;99.90
76787;DHT22;65739;51.482;5.702;2023-09-19T15:39:07;20.50;99.90
76787;DHT22;65739;51.482;5.702;2023-09-19T15:41:39;20.80;99.90
76787;DHT22;65739;51.482;5.702;2023-09-19T15:44:10;21.00;99.90
76787;DHT22;65739;51.482;5.702;2023-09-19T15:46:36;20.80;99.90
76787;DHT22;65739;51.482;5.702;2023-09-19T15:49:03;20.60;99.90
76787;DHT22;65739;51.482;5.702;2023-09-19T15:51:29;20.40;99.90
76787;DHT22;65739;51.482;5.702;2023-09-19T15:53:55;20.20;99.90
76787;DHT22;65739;51.482;5.702;2023-09-19T15:56:22;20.20;99.90
76787;DHT22;65739;51.482;5.702;2023-09-19T15:58:52;20.00;99.90
76787;DHT22;65739;51.482;5.702;2023-09-19T16:01:21;19.90;99.90
76787;DHT22;65739;51.482;5.702;2023-09-19T16:03:49;19.80;99.90
76787;DHT22;65739;51.482;5.702;2023-09-19T16:06:19;19.60;99.90
76787;DHT22;65739;51.482;5.702;2023-09-19T16:08:49;19.50;99.90
76787;DHT22;65739;51.482;5.702;2023-09-19T16:11:15;19.50;99.90
76787;DHT22;65739;51.482;5.702;2023-09-19T16:13:42;19.50;99.90
76787;DHT22;65739;51.482;5.702;2023-09-19T16:16:08;19.50;99.90
76787;DHT22;65739;51.482;5.702;2023-09-19T16:18:38;19.50;99.90
76787;DHT22;65739;51.482;5.702;2023-09-19T16:21:05;19.40;99.90
76787;DHT22;65739;51.482;5.702;2023-09-19T16:23:31;19.40;99.90